Time;durP1;ratioP1;P1;durP2;ratioP2;P2;SDS_P1;SDS_P2;PMS_P1;PMS_P2;Temp;Humidity;BMP_temperature;BMP_pressure;BME280_temperature;BME280_humidity;BME280_pressure;Samples;Min_cycle;Max_cycle;Signal;HPM_P1;HPM_P2
2022/01/01 00:00:31;;;;;;;104.20;42.67;;;;;;;;;;6119367;23;20375;-89
2022/01/01 00:02:59;;;;;;;59.78;38.92;;;;;;;;;;6119890;23;20363;-89
2022/01/01 00:05:26;;;;;;;79.13;39.72;;;;;;;;;;6118599;23;20762;-91
2022/01/01 00:08:05;;;;;;;118.80;44.47;;;;;;;;;;6119871;23;20708;-84
2022/01/01 00:10:32;;;;;;;150.35;46.15;;;;;;;;;;6113914;23;20840;-82
2022/01/01 00:12:59;;;;;;;111.93;44.63;;;;;;;;;;6114741;23;20370;-81
2022/01/01 00:15:26;;;;;;;147.63;47.60;;;;;;;;;;6116106;23;20382;-82
2022/01/01 00:17:53;;;;;;;101.60;42.23;;;;;;;;;;6116747;23;20471;-82
2022/01/01 00:20:21;;;;;;;81.80;40.83;;;;;;;;;;6116069;23;20371;-91
2022/01/01 00:22:48;;;;;;;83.75;43.03;;;;;;;;;;6118851;23;20386;-87
2022/01/01 00:25:15;;;;;;;81.37;41.60;;;;;;;;;;6116831;23;20370;-90
2022/01/01 00:27:42;;;;;;;102.25;42.00;;;;;;;;;;6116707;23;20382;-90
2022/01/01 00:30:10;;;;;;;73.47;45.38;;;;;;;;;;6117907;23;20370;-89
2022/01/01 00:32:38;;;;;;;100.32;45.45;;;;;;;;;;6116855;23;20371;-89
2022/01/01 00:35:06;;;;;;;126.53;44.15;;;;;;;;;;6117471;23;20454;-89
2022/01/01 00:37:34;;;;;;;76.18;43.05;;;;;;;;;;6117294;23;20660;-89
2022/01/01 00:40:01;;;;;;;75.43;44.42;;;;;;;;;;6118737;23;20371;-90
2022/01/01 00:42:28;;;;;;;89.93;44.75;;;;;;;;;;6117749;23;20382;-87
2022/01/01 00:44:55;;;;;;;109.77;50.20;;;;;;;;;;6118042;23;20475;-88
2022/01/01 00:47:22;;;;;;;171.05;57.03;;;;;;;;;;6122346;23;20839;-87
2022/01/01 00:49:49;;;;;;;187.75;51.28;;;;;;;;;;6136129;23;20398;-89
2022/01/01 00:52:16;;;;;;;188.23;53.00;;;;;;;;;;6123318;23;20379;-89
2022/01/01 00:54:45;;;;;;;188.70;57.30;;;;;;;;;;6115423;23;20741;-90
2022/01/01 00:57:11;;;;;;;141.60;55.35;;;;;;;;;;6115377;23;20386;-89
2022/01/01 00:59:38;;;;;;;104.22;53.42;;;;;;;;;;6116359;23;20373;-90
2022/01/01 01:02:05;;;;;;;124.22;53.65;;;;;;;;;;6114886;23;20379;-89
2022/01/01 01:04:32;;;;;;;134.73;53.88;;;;;;;;;;6116149;23;20379;-89
2022/01/01 01:06:59;;;;;;;142.00;54.67;;;;;;;;;;6115283;23;20410;-88
2022/01/01 01:09:27;;;;;;;134.15;52.72;;;;;;;;;;6116699;23;20433;-88
2022/01/01 01:11:56;;;;;;;149.02;53.35;;;;;;;;;;6114660;23;20404;-87
2022/01/01 01:14:24;;;;;;;94.43;51.22;;;;;;;;;;6116510;23;20371;-87
2022/01/01 01:16:53;;;;;;;104.55;56.28;;;;;;;;;;6114311;23;20390;-87
2022/01/01 01:19:21;;;;;;;84.38;52.05;;;;;;;;;;6113934;23;20698;-88
2022/01/01 01:21:49;;;;;;;120.68;55.58;;;;;;;;;;6115984;23;20378;-88
2022/01/01 01:24:17;;;;;;;96.23;53.93;;;;;;;;;;6115367;23;20488;-89
2022/01/01 01:26:49;;;;;;;209.63;61.20;;;;;;;;;;6115543;23;20414;-91
2022/01/01 01:29:18;;;;;;;117.53;55.65;;;;;;;;;;6116725;23;20432;-90
2022/01/01 01:31:45;;;;;;;168.55;53.72;;;;;;;;;;6116931;23;20641;-92
2022/01/01 01:34:12;;;;;;;159.52;52.75;;;;;;;;;;6116843;23;20713;-91
2022/01/01 01:36:39;;;;;;;97.60;53.13;;;;;;;;;;6116725;23;20890;-92
2022/01/01 01:39:06;;;;;;;109.60;54.42;;;;;;;;;;6117011;23;20737;-90
2022/01/01 01:41:33;;;;;;;131.98;54.10;;;;;;;;;;6116123;23;20433;-90
2022/01/01 01:44:02;;;;;;;82.32;52.85;;;;;;;;;;6116004;23;20385;-90
2022/01/01 01:46:31;;;;;;;92.97;51.75;;;;;;;;;;6116010;23;20566;-91
2022/01/01 01:48:57;;;;;;;93.88;53.65;;;;;;;;;;6115732;23;20383;-91
2022/01/01 01:51:25;;;;;;;137.38;60.33;;;;;;;;;;6116364;23;20379;-91
2022/01/01 01:53:52;;;;;;;139.70;55.92;;;;;;;;;;6115954;23;20402;-90
2022/01/01 01:56:19;;;;;;;100.43;54.35;;;;;;;;;;6115659;23;20539;-91
2022/01/01 01:58:46;;;;;;;129.23;55.10;;;;;;;;;;6114198;23;20375;-91
2022/01/01 02:01:23;;;;;;;129.10;52.90;;;;;;;;;;6114307;23;20387;-91
2022/01/01 02:03:55;;;;;;;101.82;52.38;;;;;;;;;;6116159;23;20382;-91
2022/01/01 02:06:23;;;;;;;96.75;50.70;;;;;;;;;;6116311;23;20406;-91
2022/01/01 02:08:51;;;;;;;134.70;52.75;;;;;;;;;;6115996;23;20375;-90
2022/01/01 02:11:20;;;;;;;99.57;52.28;;;;;;;;;;6117038;23;20385;-91
2022/01/01 02:16:53;;;;;;;125.75;52.92;;;;;;;;;;6111427;23;20390;-90
2022/01/01 02:19:25;;;;;;;196.68;54.10;;;;;;;;;;6115457;23;20378;-89
2022/01/01 02:21:56;;;;;;;130.80;52.08;;;;;;;;;;6114766;23;20383;-88
2022/01/01 02:24:25;;;;;;;135.80;53.93;;;;;;;;;;6115195;23;20385;-90
2022/01/01 02:26:53;;;;;;;130.65;52.78;;;;;;;;;;6114428;23;20434;-88
2022/01/01 02:29:21;;;;;;;104.85;53.92;;;;;;;;;;6115993;23;20804;-88
2022/01/01 02:31:50;;;;;;;91.15;52.40;;;;;;;;;;6116649;23;21089;-88
2022/01/01 02:34:18;;;;;;;85.80;50.42;;;;;;;;;;6115971;23;20374;-87
2022/01/01 02:36:46;;;;;;;77.43;49.67;;;;;;;;;;6114541;23;20391;-90
2022/01/01 02:39:17;;;;;;;93.47;49.83;;;;;;;;;;6114028;23;20859;-86
2022/01/01 02:41:45;;;;;;;81.53;50.35;;;;;;;;;;6115096;23;20367;-84
2022/01/01 02:44:12;;;;;;;179.93;51.65;;;;;;;;;;6114157;23;20371;-84
2022/01/01 02:46:39;;;;;;;157.85;51.63;;;;;;;;;;6114330;23;20378;-82
2022/01/01 02:49:06;;;;;;;113.00;50.45;;;;;;;;;;6114647;23;20417;-84
2022/01/01 02:51:33;;;;;;;164.73;51.72;;;;;;;;;;6114111;23;20375;-86
2022/01/01 02:54:00;;;;;;;90.75;51.97;;;;;;;;;;6113295;23;20379;-83
2022/01/01 02:56:28;;;;;;;147.50;53.03;;;;;;;;;;6114677;23;20442;-86
2022/01/01 02:58:55;;;;;;;125.95;52.28;;;;;;;;;;6114323;23;20375;-86
2022/01/01 03:01:22;;;;;;;144.57;54.42;;;;;;;;;;6115676;23;20376;-84
2022/01/01 03:03:49;;;;;;;142.07;52.97;;;;;;;;;;6115265;23;20371;-84
2022/01/01 03:06:19;;;;;;;141.02;56.47;;;;;;;;;;6115185;23;20437;-86
2022/01/01 03:08:47;;;;;;;139.83;53.53;;;;;;;;;;6117178;23;20377;-86
2022/01/01 03:11:15;;;;;;;154.63;56.22;;;;;;;;;;6116458;23;20386;-86
2022/01/01 03:13:44;;;;;;;130.45;57.45;;;;;;;;;;6117417;23;21164;-85
2022/01/01 03:16:11;;;;;;;146.15;55.45;;;;;;;;;;6116930;23;21185;-85
2022/01/01 03:18:38;;;;;;;99.18;47.92;;;;;;;;;;6117674;23;20370;-86
2022/01/01 03:21:05;;;;;;;153.70;51.00;;;;;;;;;;6117086;23;20831;-85
2022/01/01 03:23:32;;;;;;;174.88;53.13;;;;;;;;;;6117547;23;20681;-85
2022/01/01 03:26:00;;;;;;;135.30;54.70;;;;;;;;;;6117556;23;20373;-84
2022/01/01 03:28:27;;;;;;;190.98;57.17;;;;;;;;;;6118381;23;20371;-85
2022/01/01 03:30:55;;;;;;;157.63;56.28;;;;;;;;;;6116716;23;20769;-85
2022/01/01 03:33:22;;;;;;;152.35;57.08;;;;;;;;;;6116263;23;20370;-85
2022/01/01 03:35:49;;;;;;;132.32;58.33;;;;;;;;;;6115811;23;20437;-85
2022/01/01 03:38:16;;;;;;;119.13;56.15;;;;;;;;;;6116182;23;20421;-86
2022/01/01 03:40:43;;;;;;;110.82;55.42;;;;;;;;;;6117019;23;20371;-85
2022/01/01 03:43:10;;;;;;;93.60;51.77;;;;;;;;;;6124766;23;20383;-86
2022/01/01 03:45:37;;;;;;;109.93;49.95;;;;;;;;;;6136835;23;20602;-85
2022/01/01 03:48:06;;;;;;;150.70;48.35;;;;;;;;;;6117340;23;20442;-85
2022/01/01 03:50:33;;;;;;;104.53;48.90;;;;;;;;;;6117151;23;20367;-85
2022/01/01 03:52:59;;;;;;;106.63;47.45;;;;;;;;;;6117389;23;20430;-84
2022/01/01 03:55:26;;;;;;;134.85;50.50;;;;;;;;;;6116916;23;20363;-85
2022/01/01 03:57:53;;;;;;;94.50;48.65;;;;;;;;;;6116414;23;20391;-85
2022/01/01 04:00:20;;;;;;;103.47;49.22;;;;;;;;;;6116984;23;20418;-85
2022/01/01 04:02:47;;;;;;;137.18;49.33;;;;;;;;;;6116785;23;20371;-85
2022/01/01 04:05:15;;;;;;;125.50;51.08;;;;;;;;;;6116943;23;20374;-85
2022/01/01 04:07:42;;;;;;;76.87;48.10;;;;;;;;;;6117248;23;20366;-85
2022/01/01 04:10:10;;;;;;;135.05;50.35;;;;;;;;;;6116561;23;21194;-85
2022/01/01 04:12:37;;;;;;;101.20;47.80;;;;;;;;;;6116834;23;20743;-85
2022/01/01 04:15:05;;;;;;;134.43;48.78;;;;;;;;;;6115880;23;20860;-85
2022/01/01 04:17:36;;;;;;;120.10;52.50;;;;;;;;;;6116871;23;20383;-85
2022/01/01 04:20:05;;;;;;;104.50;49.70;;;;;;;;;;6117012;23;20915;-85
2022/01/01 04:22:33;;;;;;;83.05;51.38;;;;;;;;;;6118284;23;20367;-85
2022/01/01 04:25:00;;;;;;;94.38;51.22;;;;;;;;;;6117232;23;20375;-85
2022/01/01 04:27:27;;;;;;;133.00;50.67;;;;;;;;;;6117171;23;20379;-85
2022/01/01 04:29:53;;;;;;;98.38;51.22;;;;;;;;;;6116816;23;20729;-85
2022/01/01 04:32:20;;;;;;;105.55;52.03;;;;;;;;;;6117391;23;20434;-85
2022/01/01 04:34:47;;;;;;;126.65;51.55;;;;;;;;;;6117152;23;20432;-85
2022/01/01 04:37:15;;;;;;;83.65;51.47;;;;;;;;;;6117474;23;20387;-85
2022/01/01 04:39:44;;;;;;;100.18;49.35;;;;;;;;;;6117287;23;20375;-85
2022/01/01 04:42:10;;;;;;;109.43;49.88;;;;;;;;;;6117590;23;20367;-85
2022/01/01 04:44:37;;;;;;;98.90;48.22;;;;;;;;;;6117849;23;20430;-85
2022/01/01 04:47:04;;;;;;;88.18;50.15;;;;;;;;;;6118493;23;20367;-85
2022/01/01 04:49:31;;;;;;;93.33;50.03;;;;;;;;;;6117954;23;20391;-86
2022/01/01 04:51:59;;;;;;;93.90;46.75;;;;;;;;;;6117994;23;20370;-85
2022/01/01 04:54:26;;;;;;;81.80;47.15;;;;;;;;;;6116559;23;20860;-85
2022/01/01 04:56:54;;;;;;;83.57;47.88;;;;;;;;;;6116538;23;20382;-85
2022/01/01 04:59:21;;;;;;;72.20;47.13;;;;;;;;;;6116182;23;21153;-85
2022/01/01 05:01:48;;;;;;;84.38;47.60;;;;;;;;;;6116415;23;20371;-85
2022/01/01 05:04:15;;;;;;;70.53;47.95;;;;;;;;;;6115643;23;20422;-85
2022/01/01 05:06:42;;;;;;;110.18;48.88;;;;;;;;;;6115643;23;20371;-85
2022/01/01 05:09:09;;;;;;;89.80;48.58;;;;;;;;;;6115309;23;20373;-85
2022/01/01 05:11:36;;;;;;;81.13;46.42;;;;;;;;;;6117086;23;20395;-86
2022/01/01 05:14:05;;;;;;;84.33;49.50;;;;;;;;;;6115302;23;20398;-86
2022/01/01 05:16:31;;;;;;;123.43;52.70;;;;;;;;;;6116184;23;20367;-85
2022/01/01 05:18:58;;;;;;;98.47;48.60;;;;;;;;;;6115142;23;20879;-86
2022/01/01 05:21:27;;;;;;;83.78;47.65;;;;;;;;;;6116529;23;20414;-86
2022/01/01 05:23:54;;;;;;;125.88;49.92;;;;;;;;;;6114849;23;20371;-86
2022/01/01 05:26:21;;;;;;;83.68;47.88;;;;;;;;;;6115894;23;20362;-85
2022/01/01 05:28:49;;;;;;;100.00;50.70;;;;;;;;;;6115036;23;20368;-86
2022/01/01 05:31:19;;;;;;;127.80;52.22;;;;;;;;;;6115403;23;20375;-86
2022/01/01 05:33:46;;;;;;;114.63;52.70;;;;;;;;;;6115441;23;20421;-86
2022/01/01 05:36:13;;;;;;;82.72;51.40;;;;;;;;;;6116374;23;20378;-86
2022/01/01 05:38:40;;;;;;;87.05;50.88;;;;;;;;;;6115640;23;20395;-85
2022/01/01 05:41:07;;;;;;;94.43;51.67;;;;;;;;;;6116080;23;20368;-86
2022/01/01 05:43:34;;;;;;;100.10;53.13;;;;;;;;;;6115673;23;20371;-85
2022/01/01 05:46:01;;;;;;;89.82;52.65;;;;;;;;;;6115065;23;20411;-86
2022/01/01 05:48:29;;;;;;;85.20;50.05;;;;;;;;;;6115817;23;20371;-86
2022/01/01 05:50:57;;;;;;;87.32;49.03;;;;;;;;;;6115160;23;21418;-86
2022/01/01 05:53:24;;;;;;;114.55;49.97;;;;;;;;;;6115777;23;20363;-85
2022/01/01 05:55:51;;;;;;;90.75;50.20;;;;;;;;;;6116453;23;20374;-86
2022/01/01 05:58:18;;;;;;;125.63;51.03;;;;;;;;;;6115057;23;20915;-86
2022/01/01 06:00:45;;;;;;;96.15;52.80;;;;;;;;;;6115833;23;20670;-86
2022/01/01 06:03:12;;;;;;;123.82;51.40;;;;;;;;;;6116434;23;20433;-86
2022/01/01 06:05:40;;;;;;;101.28;47.88;;;;;;;;;;6115479;23;21006;-86
2022/01/01 06:08:07;;;;;;;125.60;54.72;;;;;;;;;;6115689;23;20367;-86
2022/01/01 06:10:34;;;;;;;128.55;50.75;;;;;;;;;;6115916;23;20438;-87
2022/01/01 06:13:01;;;;;;;103.63;48.70;;;;;;;;;;6115717;23;20375;-86
2022/01/01 06:15:27;;;;;;;107.50;49.25;;;;;;;;;;6114880;23;20370;-86
2022/01/01 06:17:54;;;;;;;110.55;51.17;;;;;;;;;;6115061;23;20772;-86
2022/01/01 06:20:21;;;;;;;93.72;49.88;;;;;;;;;;6115454;23;20371;-86
2022/01/01 06:22:49;;;;;;;79.47;49.67;;;;;;;;;;6115311;23;20374;-86
2022/01/01 06:25:16;;;;;;;86.45;50.15;;;;;;;;;;6115293;23;20463;-86
2022/01/01 06:27:43;;;;;;;118.40;48.43;;;;;;;;;;6115051;23;20424;-86
2022/01/01 06:30:11;;;;;;;72.13;48.58;;;;;;;;;;6114860;23;20379;-86
2022/01/01 06:32:38;;;;;;;77.82;48.03;;;;;;;;;;6115555;23;20375;-86
2022/01/01 06:35:06;;;;;;;79.53;49.42;;;;;;;;;;6114934;23;20686;-86
2022/01/01 06:37:32;;;;;;;80.18;49.50;;;;;;;;;;6139049;23;20371;-85
2022/01/01 06:40:01;;;;;;;82.18;49.88;;;;;;;;;;6125403;23;20371;-86
2022/01/01 06:42:27;;;;;;;95.63;51.33;;;;;;;;;;6115394;23;20731;-86
2022/01/01 06:44:54;;;;;;;114.75;51.72;;;;;;;;;;6114303;23;20374;-86
2022/01/01 06:47:21;;;;;;;108.78;51.35;;;;;;;;;;6115538;23;20367;-85
2022/01/01 06:49:48;;;;;;;85.68;48.92;;;;;;;;;;6115546;23;20371;-86
2022/01/01 06:52:14;;;;;;;85.07;49.35;;;;;;;;;;6115929;23;20375;-86
2022/01/01 06:54:41;;;;;;;127.35;52.85;;;;;;;;;;6114974;23;20367;-86
2022/01/01 06:57:09;;;;;;;86.93;50.15;;;;;;;;;;6115009;23;20861;-86
2022/01/01 06:59:36;;;;;;;81.77;51.27;;;;;;;;;;6114898;23;20576;-86
2022/01/01 07:02:03;;;;;;;92.90;49.65;;;;;;;;;;6115135;23;20870;-85
2022/01/01 07:04:30;;;;;;;83.90;50.33;;;;;;;;;;6114638;23;20367;-86
2022/01/01 07:06:57;;;;;;;112.13;50.38;;;;;;;;;;6114589;23;20429;-86
2022/01/01 07:09:24;;;;;;;90.07;49.00;;;;;;;;;;6115175;23;20363;-85
2022/01/01 07:11:51;;;;;;;69.20;47.65;;;;;;;;;;6113850;23;20367;-86
2022/01/01 07:14:21;;;;;;;101.05;49.15;;;;;;;;;;6115102;23;20375;-86
2022/01/01 07:16:48;;;;;;;92.20;50.33;;;;;;;;;;6115159;23;20422;-85
2022/01/01 07:19:15;;;;;;;104.25;48.65;;;;;;;;;;6114572;23;20462;-85
2022/01/01 07:21:42;;;;;;;143.38;48.97;;;;;;;;;;6115183;23;20410;-86
2022/01/01 07:24:08;;;;;;;192.02;56.65;;;;;;;;;;6115506;23;20375;-85
2022/01/01 07:26:36;;;;;;;156.75;54.08;;;;;;;;;;6115702;23;20915;-85
2022/01/01 07:29:03;;;;;;;118.90;54.38;;;;;;;;;;6114011;23;21136;-86
2022/01/01 07:31:31;;;;;;;140.32;56.00;;;;;;;;;;6115233;23;20366;-86
2022/01/01 07:33:58;;;;;;;149.38;53.40;;;;;;;;;;6114014;23;20371;-86
2022/01/01 07:36:25;;;;;;;145.45;52.40;;;;;;;;;;6114886;23;20367;-86
2022/01/01 07:38:51;;;;;;;107.47;54.63;;;;;;;;;;6114460;23;20871;-81
2022/01/01 07:41:18;;;;;;;128.30;49.57;;;;;;;;;;6115451;23;20772;-85
2022/01/01 07:43:45;;;;;;;149.10;51.13;;;;;;;;;;6115504;23;20370;-85
2022/01/01 07:46:12;;;;;;;151.20;52.40;;;;;;;;;;6114139;23;20367;-85
2022/01/01 07:48:40;;;;;;;202.85;56.72;;;;;;;;;;6110949;23;20371;-85
2022/01/01 07:51:07;;;;;;;152.65;54.97;;;;;;;;;;6113158;23;20421;-85
2022/01/01 07:53:34;;;;;;;169.90;53.23;;;;;;;;;;6116399;23;20414;-85
2022/01/01 07:56:03;;;;;;;148.40;51.65;;;;;;;;;;6113901;23;20531;-85
2022/01/01 07:58:31;;;;;;;135.07;50.53;;;;;;;;;;6116393;23;20399;-85
2022/01/01 08:00:57;;;;;;;87.32;50.60;;;;;;;;;;6115538;23;20453;-85
2022/01/01 08:03:25;;;;;;;99.53;52.72;;;;;;;;;;6115248;23;21084;-85
2022/01/01 08:05:54;;;;;;;93.50;45.42;;;;;;;;;;6114690;23;20426;-85
2022/01/01 08:08:21;;;;;;;89.80;45.70;;;;;;;;;;6117240;23;20483;-85
2022/01/01 08:10:48;;;;;;;92.40;45.00;;;;;;;;;;6115290;23;20765;-85
2022/01/01 08:13:22;;;;;;;98.60;48.97;;;;;;;;;;6115440;23;20363;-85
2022/01/01 08:15:49;;;;;;;91.18;50.78;;;;;;;;;;6114987;23;20383;-85
2022/01/01 08:18:17;;;;;;;88.25;51.47;;;;;;;;;;6115364;23;20430;-85
2022/01/01 08:20:44;;;;;;;99.57;57.50;;;;;;;;;;6115697;23;20362;-84
2022/01/01 08:23:13;;;;;;;125.45;63.67;;;;;;;;;;6115777;23;20725;-85
2022/01/01 08:25:40;;;;;;;130.00;69.38;;;;;;;;;;6115826;23;20541;-85
2022/01/01 08:28:09;;;;;;;115.50;68.10;;;;;;;;;;6114493;23;20418;-85
2022/01/01 08:30:36;;;;;;;119.80;69.05;;;;;;;;;;6115517;23;20622;-85
2022/01/01 08:33:04;;;;;;;136.50;68.00;;;;;;;;;;6113720;23;20371;-85
2022/01/01 08:35:31;;;;;;;142.88;68.93;;;;;;;;;;6114921;23;20367;-84
2022/01/01 08:37:58;;;;;;;129.02;65.55;;;;;;;;;;6114585;23;20413;-85
2022/01/01 08:40:28;;;;;;;134.02;64.95;;;;;;;;;;6115650;23;20376;-84
2022/01/01 08:42:55;;;;;;;118.75;65.28;;;;;;;;;;6113692;23;20902;-84
2022/01/01 08:45:22;;;;;;;135.30;66.80;;;;;;;;;;6114739;23;20367;-84
2022/01/01 08:47:49;;;;;;;111.03;66.45;;;;;;;;;;6113860;23;20876;-84
2022/01/01 08:50:17;;;;;;;94.35;60.15;;;;;;;;;;6115093;23;20497;-84
2022/01/01 08:52:44;;;;;;;103.18;66.50;;;;;;;;;;6114469;23;20441;-83
2022/01/01 08:55:11;;;;;;;95.20;61.10;;;;;;;;;;6114438;23;20375;-84
2022/01/01 08:57:39;;;;;;;91.90;60.75;;;;;;;;;;6114773;23;20754;-85
2022/01/01 09:00:09;;;;;;;93.70;61.35;;;;;;;;;;6113659;23;20442;-84
2022/01/01 09:02:36;;;;;;;88.53;59.20;;;;;;;;;;6114363;23;20445;-84
2022/01/01 09:05:04;;;;;;;88.70;60.78;;;;;;;;;;6112875;23;20798;-84
2022/01/01 09:07:31;;;;;;;87.00;57.95;;;;;;;;;;6114691;23;20430;-84
2022/01/01 09:09:58;;;;;;;89.55;59.35;;;;;;;;;;6114253;23;20379;-84
2022/01/01 09:12:25;;;;;;;89.88;57.80;;;;;;;;;;6114357;23;20437;-84
2022/01/01 09:14:54;;;;;;;88.68;58.17;;;;;;;;;;6113629;23;20374;-84
2022/01/01 09:17:21;;;;;;;93.10;59.80;;;;;;;;;;6113953;23;20748;-84
2022/01/01 09:19:48;;;;;;;92.43;62.92;;;;;;;;;;6114239;23;20418;-84
2022/01/01 09:22:15;;;;;;;91.95;62.22;;;;;;;;;;6114777;23;20370;-84
2022/01/01 09:24:42;;;;;;;91.85;62.88;;;;;;;;;;6114411;23;20844;-84
2022/01/01 09:27:10;;;;;;;93.28;66.47;;;;;;;;;;6114166;23;20370;-84
2022/01/01 09:29:36;;;;;;;88.88;62.67;;;;;;;;;;6118789;23;20382;-84
2022/01/01 09:32:06;;;;;;;86.85;62.85;;;;;;;;;;6127572;23;20459;-84
2022/01/01 09:34:32;;;;;;;88.18;62.05;;;;;;;;;;6113362;23;20406;-84
2022/01/01 09:36:59;;;;;;;87.18;61.72;;;;;;;;;;6115679;23;20371;-85
2022/01/01 09:39:26;;;;;;;84.53;60.53;;;;;;;;;;6116622;23;20772;-85
2022/01/01 09:41:53;;;;;;;85.78;62.03;;;;;;;;;;6116090;23;20374;-84
2022/01/01 09:44:22;;;;;;;83.38;60.38;;;;;;;;;;6116219;23;20425;-84
2022/01/01 09:46:50;;;;;;;92.72;64.53;;;;;;;;;;6114800;23;20426;-84
2022/01/01 09:49:19;;;;;;;89.85;64.93;;;;;;;;;;6116383;23;20767;-85
2022/01/01 09:51:47;;;;;;;98.53;69.65;;;;;;;;;;6114129;23;20406;-85
2022/01/01 09:54:15;;;;;;;102.05;71.47;;;;;;;;;;6114781;23;20367;-80
2022/01/01 09:56:42;;;;;;;96.17;71.10;;;;;;;;;;6116207;23;20448;-83
2022/01/01 09:59:08;;;;;;;107.57;75.25;;;;;;;;;;6114969;23;20394;-83
2022/01/01 10:01:35;;;;;;;99.80;73.07;;;;;;;;;;6116730;23;20373;-83
2022/01/01 10:04:12;;;;;;;100.53;73.05;;;;;;;;;;6115963;23;20375;-84
2022/01/01 10:06:41;;;;;;;101.18;75.03;;;;;;;;;;6116360;23;20462;-83
2022/01/01 10:09:09;;;;;;;106.43;78.63;;;;;;;;;;6115173;23;20930;-83
2022/01/01 10:11:36;;;;;;;109.75;80.38;;;;;;;;;;6121038;23;20363;-83
2022/01/01 10:14:06;;;;;;;104.93;76.75;;;;;;;;;;6121459;23;20447;-83
2022/01/01 10:16:34;;;;;;;97.27;73.23;;;;;;;;;;6116673;23;20363;-83
2022/01/01 10:19:02;;;;;;;96.88;71.70;;;;;;;;;;6116022;23;20502;-84
2022/01/01 10:21:34;;;;;;;94.95;71.10;;;;;;;;;;6116571;23;20422;-84
2022/01/01 10:24:02;;;;;;;89.30;68.30;;;;;;;;;;6116129;23;20449;-84
2022/01/01 10:29:16;;;;;;;95.90;70.82;;;;;;;;;;6116157;23;20365;-84
2022/01/01 10:31:55;;;;;;;87.88;67.03;;;;;;;;;;6117097;23;20445;-84
2022/01/01 10:34:25;;;;;;;84.57;63.72;;;;;;;;;;6117852;23;20369;-83
2022/01/01 10:36:54;;;;;;;92.22;66.78;;;;;;;;;;6115562;23;20367;-84
2022/01/01 10:39:23;;;;;;;91.47;64.13;;;;;;;;;;6116453;23;20438;-83
2022/01/01 10:41:53;;;;;;;98.68;68.82;;;;;;;;;;6116461;23;20371;-84
2022/01/01 10:44:27;;;;;;;93.38;66.03;;;;;;;;;;6115660;23;20426;-84
2022/01/01 10:46:54;;;;;;;92.60;65.43;;;;;;;;;;6115350;23;20426;-84
2022/01/01 10:49:33;;;;;;;92.97;65.63;;;;;;;;;;6115712;23;20382;-84
2022/01/01 10:52:17;;;;;;;93.97;62.03;;;;;;;;;;6116313;23;20389;-84
2022/01/01 10:54:54;;;;;;;96.32;65.30;;;;;;;;;;6115690;23;20367;-84
2022/01/01 10:57:33;;;;;;;99.20;67.05;;;;;;;;;;6115675;23;20371;-84
2022/01/01 11:00:17;;;;;;;95.45;63.22;;;;;;;;;;6115338;23;20387;-84
2022/01/01 11:02:45;;;;;;;100.07;65.45;;;;;;;;;;6116242;23;20403;-84
2022/01/01 11:05:13;;;;;;;109.82;63.25;;;;;;;;;;6116067;23;20374;-84
2022/01/01 11:07:50;;;;;;;106.97;67.30;;;;;;;;;;6116541;23;20378;-85
2022/01/01 11:10:20;;;;;;;106.85;68.20;;;;;;;;;;6115415;23;20363;-85
2022/01/01 11:12:48;;;;;;;104.90;67.28;;;;;;;;;;6115339;23;20363;-84
2022/01/01 11:15:16;;;;;;;119.43;64.28;;;;;;;;;;6115946;23;20768;-84
2022/01/01 11:17:44;;;;;;;116.93;63.83;;;;;;;;;;6115272;23;20363;-84
2022/01/01 11:20:11;;;;;;;114.43;64.30;;;;;;;;;;6114897;23;20386;-84
2022/01/01 11:22:38;;;;;;;113.90;68.95;;;;;;;;;;6115192;23;20931;-84
2022/01/01 11:25:06;;;;;;;134.35;74.72;;;;;;;;;;6114658;23;20367;-84
2022/01/01 11:27:35;;;;;;;104.30;65.67;;;;;;;;;;6116413;23;20925;-85
2022/01/01 11:30:04;;;;;;;101.00;61.08;;;;;;;;;;6116933;23;20457;-84
2022/01/01 11:32:43;;;;;;;103.80;62.17;;;;;;;;;;6117793;23;20847;-83
2022/01/01 11:35:11;;;;;;;107.80;64.25;;;;;;;;;;6117071;23;20840;-84
2022/01/01 11:37:57;;;;;;;107.47;65.75;;;;;;;;;;6117728;23;20453;-84
2022/01/01 11:40:25;;;;;;;100.18;64.35;;;;;;;;;;6117097;23;20482;-85
2022/01/01 11:42:53;;;;;;;91.07;60.15;;;;;;;;;;6116209;23;20422;-84
2022/01/01 11:45:50;;;;;;;84.03;56.63;;;;;;;;;;6116595;23;20382;-85
2022/01/01 11:48:36;;;;;;;83.53;57.72;;;;;;;;;;5999667;23;20374;-84
2022/01/01 11:51:38;;;;;;;78.43;54.90;;;;;;;;;;6105194;23;21044;-84
2022/01/01 11:54:18;;;;;;;82.95;54.70;;;;;;;;;;6114382;23;20426;-76
2022/01/01 11:57:06;;;;;;;73.47;50.35;;;;;;;;;;6117328;23;20379;-80
2022/01/01 11:59:41;;;;;;;83.97;53.50;;;;;;;;;;6117601;23;20796;-80
2022/01/01 12:02:29;;;;;;;84.70;56.40;;;;;;;;;;6112121;23;20359;-80
2022/01/01 12:05:08;;;;;;;79.63;53.63;;;;;;;;;;6116812;23;20476;-81
2022/01/01 12:07:43;;;;;;;76.22;51.88;;;;;;;;;;6115396;23;20454;-80
2022/01/01 12:10:16;;;;;;;62.10;46.22;;;;;;;;;;6116937;23;20406;-80
2022/01/01 12:12:45;;;;;;;65.05;46.60;;;;;;;;;;6115768;23;20382;-84
2022/01/01 12:15:28;;;;;;;66.82;48.45;;;;;;;;;;6116759;23;20422;-73
2022/01/01 12:17:57;;;;;;;63.20;46.97;;;;;;;;;;6115755;23;20756;-83
2022/01/01 12:20:28;;;;;;;63.20;47.33;;;;;;;;;;6116148;23;20769;-85
2022/01/01 12:22:55;;;;;;;65.07;47.97;;;;;;;;;;6115744;23;20379;-85
2022/01/01 12:25:25;;;;;;;65.82;47.45;;;;;;;;;;6115095;23;20367;-84
2022/01/01 12:27:53;;;;;;;67.45;49.25;;;;;;;;;;6117049;23;20450;-84
2022/01/01 12:30:38;;;;;;;64.93;47.03;;;;;;;;;;6116696;23;20379;-83
2022/01/01 12:33:06;;;;;;;67.20;48.55;;;;;;;;;;6116981;23;20363;-84
2022/01/01 12:35:48;;;;;;;67.47;49.75;;;;;;;;;;6117853;23;20371;-84
2022/01/01 12:38:17;;;;;;;66.15;49.10;;;;;;;;;;6116962;23;20472;-84
2022/01/01 12:41:05;;;;;;;69.55;51.10;;;;;;;;;;6116410;23;20434;-84
2022/01/01 12:43:44;;;;;;;68.20;50.50;;;;;;;;;;6118288;23;21023;-84
2022/01/01 12:46:14;;;;;;;66.25;48.97;;;;;;;;;;6117368;23;20430;-84
2022/01/01 12:48:42;;;;;;;65.55;47.15;;;;;;;;;;6117082;23;20403;-84
2022/01/01 12:51:10;;;;;;;68.78;48.78;;;;;;;;;;6117268;23;20377;-81
2022/01/01 12:53:39;;;;;;;65.28;47.38;;;;;;;;;;6111019;23;20370;-82
2022/01/01 12:56:09;;;;;;;64.40;47.85;;;;;;;;;;6112072;23;20426;-83
2022/01/01 12:58:41;;;;;;;63.35;47.55;;;;;;;;;;6115057;23;20422;-82
2022/01/01 13:01:10;;;;;;;64.25;47.70;;;;;;;;;;6113885;23;20375;-82
2022/01/01 13:03:39;;;;;;;65.18;46.95;;;;;;;;;;6115272;23;20371;-82
2022/01/01 13:06:08;;;;;;;61.17;47.03;;;;;;;;;;6114147;23;20379;-82
2022/01/01 13:08:39;;;;;;;61.45;47.17;;;;;;;;;;6116794;23;20454;-83
2022/01/01 13:11:09;;;;;;;61.40;46.03;;;;;;;;;;6115971;23;20925;-82
2022/01/01 13:13:36;;;;;;;61.05;46.25;;;;;;;;;;6117269;23;20728;-82
2022/01/01 13:16:03;;;;;;;59.13;45.13;;;;;;;;;;6116528;23;20736;-82
2022/01/01 13:18:32;;;;;;;58.15;44.38;;;;;;;;;;6116969;23;20367;-83
2022/01/01 13:21:00;;;;;;;57.83;43.70;;;;;;;;;;6116924;23;20684;-82
2022/01/01 13:23:27;;;;;;;56.10;43.13;;;;;;;;;;6117672;23;20426;-83
2022/01/01 13:25:55;;;;;;;54.77;42.10;;;;;;;;;;6116746;23;20370;-82
2022/01/01 13:28:24;;;;;;;55.95;42.50;;;;;;;;;;6115621;23;20382;-82
2022/01/01 13:30:52;;;;;;;52.45;41.28;;;;;;;;;;6122122;23;20764;-83
2022/01/01 13:33:19;;;;;;;53.45;41.70;;;;;;;;;;6126226;23;20371;-83
2022/01/01 13:35:51;;;;;;;55.03;42.33;;;;;;;;;;6117941;23;20371;-83
2022/01/01 13:38:20;;;;;;;52.17;41.63;;;;;;;;;;6116998;23;20438;-83
2022/01/01 13:40:48;;;;;;;50.97;41.33;;;;;;;;;;6116159;23;20869;-83
2022/01/01 13:43:17;;;;;;;49.70;41.45;;;;;;;;;;6116548;23;20912;-83
2022/01/01 13:45:44;;;;;;;48.95;41.35;;;;;;;;;;6116734;23;20414;-83
2022/01/01 13:48:12;;;;;;;47.47;40.72;;;;;;;;;;6115999;23;20371;-83
2022/01/01 13:50:40;;;;;;;46.28;40.50;;;;;;;;;;6117341;23;20371;-83
2022/01/01 13:53:08;;;;;;;45.00;40.05;;;;;;;;;;6116191;23;20378;-83
2022/01/01 13:55:50;;;;;;;46.47;39.63;;;;;;;;;;6116091;23;20379;-83
2022/01/01 13:58:17;;;;;;;44.63;39.87;;;;;;;;;;6116468;23;20378;-83
2022/01/01 14:00:52;;;;;;;44.25;38.92;;;;;;;;;;6116371;23;20393;-83
2022/01/01 14:03:19;;;;;;;44.53;39.63;;;;;;;;;;6116521;23;20832;-83
2022/01/01 14:05:46;;;;;;;43.37;38.60;;;;;;;;;;6115875;23;20438;-84
2022/01/01 14:08:13;;;;;;;44.85;39.53;;;;;;;;;;6115321;23;20879;-83
2022/01/01 14:10:42;;;;;;;44.58;38.92;;;;;;;;;;6116175;23;20378;-84
2022/01/01 14:13:09;;;;;;;44.20;39.43;;;;;;;;;;6116288;23;20374;-84
2022/01/01 14:15:37;;;;;;;45.65;39.55;;;;;;;;;;6116223;23;20370;-83
2022/01/01 14:18:07;;;;;;;45.67;40.42;;;;;;;;;;6116213;23;20504;-84
2022/01/01 14:20:35;;;;;;;45.43;40.47;;;;;;;;;;6115484;23;20387;-84
2022/01/01 14:23:04;;;;;;;47.13;40.05;;;;;;;;;;6115163;23;20422;-83
2022/01/01 14:25:32;;;;;;;45.23;39.40;;;;;;;;;;6116808;23;20737;-83